createdAt,value
2018-06-04T00:00:02.430Z,18.80
2018-06-04T00:02:30.950Z,18.80
2018-06-04T00:04:59.453Z,18.80
2018-06-04T00:07:28.004Z,18.80
2018-06-04T00:09:57.592Z,18.80
2018-06-04T00:12:26.112Z,18.80
2018-06-04T00:14:54.627Z,18.80
2018-06-04T00:17:23.139Z,18.80
2018-06-04T00:19:51.626Z,18.80
2018-06-04T00:22:20.122Z,18.90
2018-06-04T00:24:48.693Z,18.90
2018-06-04T00:27:17.966Z,18.80
2018-06-04T00:29:46.521Z,18.90
2018-06-04T00:32:15.088Z,18.90
2018-06-04T00:34:43.703Z,18.90
2018-06-04T00:37:12.201Z,18.90
2018-06-04T00:39:40.799Z,18.80
2018-06-04T00:42:09.399Z,18.80
2018-06-04T00:44:37.938Z,18.80
2018-06-04T00:47:06.438Z,18.80
2018-06-04T00:49:34.989Z,18.80
2018-06-04T00:52:03.581Z,18.80
2018-06-04T00:54:32.152Z,18.70
2018-06-04T00:57:00.677Z,18.70
2018-06-04T00:59:29.153Z,18.70
2018-06-04T01:01:57.678Z,18.70
2018-06-04T01:04:26.187Z,18.60
2018-06-04T01:06:54.698Z,18.60
2018-06-04T01:11:51.381Z,18.60
2018-06-04T01:14:19.893Z,18.60
2018-06-04T01:16:48.381Z,18.50
2018-06-04T01:21:45.299Z,18.50
2018-06-04T01:26:42.116Z,18.50
2018-06-04T01:29:10.633Z,18.40
2018-06-04T01:31:39.836Z,18.40
2018-06-04T01:34:08.374Z,18.40
2018-06-04T01:36:37.384Z,18.30
2018-06-04T01:39:07.717Z,18.40
2018-06-04T01:41:36.490Z,18.40
2018-06-04T01:44:05.041Z,18.30
2018-06-04T01:46:33.560Z,18.30
2018-06-04T01:49:02.104Z,18.30
2018-06-04T01:51:30.621Z,18.30
2018-06-04T01:53:59.165Z,18.30
2018-06-04T01:56:27.741Z,18.20
2018-06-04T01:58:56.261Z,18.30
2018-06-04T02:01:24.746Z,18.20
2018-06-04T02:03:53.293Z,18.20
2018-06-04T02:08:50.058Z,18.20
2018-06-04T02:11:18.652Z,18.10
2018-06-04T02:13:47.214Z,18.10
2018-06-04T02:16:15.786Z,18.10
2018-06-04T02:21:12.513Z,18.10
2018-06-04T02:23:41.725Z,18.10
2018-06-04T02:26:10.345Z,18.10
2018-06-04T02:28:38.886Z,18.10
2018-06-04T02:31:07.518Z,18.00
2018-06-04T02:33:36.038Z,18.10
2018-06-04T02:36:04.565Z,18.00
2018-06-04T02:38:33.108Z,18.00
2018-06-04T02:41:01.646Z,18.00
2018-06-04T02:43:30.165Z,18.00
2018-06-04T02:45:58.668Z,18.00
2018-06-04T02:48:27.189Z,18.00
2018-06-04T02:53:23.895Z,18.00
2018-06-04T02:55:52.444Z,17.90
2018-06-04T02:58:20.964Z,17.90
2018-06-04T03:00:49.538Z,17.80
2018-06-04T03:03:18.038Z,17.80
2018-06-04T03:05:46.593Z,17.80
2018-06-04T03:08:15.165Z,17.80
2018-06-04T03:10:43.710Z,17.80
2018-06-04T03:13:12.331Z,17.70
2018-06-04T03:15:40.910Z,17.80
2018-06-04T03:20:37.622Z,17.70
2018-06-04T03:23:06.393Z,17.80
2018-06-04T03:25:34.908Z,17.80
2018-06-04T03:28:03.475Z,17.70
2018-06-04T03:30:32.018Z,17.70
2018-06-04T03:33:00.523Z,17.70
2018-06-04T03:35:29.117Z,17.70
2018-06-04T03:37:57.630Z,17.70
2018-06-04T03:40:26.154Z,17.80
2018-06-04T03:42:54.678Z,17.80
2018-06-04T03:45:23.198Z,17.80
2018-06-04T03:47:51.707Z,17.80
2018-06-04T03:52:48.426Z,17.90
2018-06-04T03:57:45.473Z,17.80
2018-06-04T04:00:14.007Z,17.90
2018-06-04T04:02:42.556Z,17.80
2018-06-04T04:05:11.046Z,17.80
2018-06-04T04:07:39.584Z,17.80
2018-06-04T04:10:08.094Z,17.80
2018-06-04T04:12:36.641Z,17.80
2018-06-04T04:15:05.141Z,17.80
2018-06-04T04:17:33.671Z,17.80
2018-06-04T04:20:02.180Z,17.80
2018-06-04T04:24:59.751Z,17.80
2018-06-04T04:27:28.259Z,17.80
2018-06-04T04:29:56.801Z,17.80
2018-06-04T04:32:25.347Z,17.90
2018-06-04T04:34:53.880Z,17.80
2018-06-04T04:37:22.409Z,17.70
2018-06-04T04:39:51.545Z,17.70
2018-06-04T04:42:20.054Z,17.80
2018-06-04T04:44:48.538Z,17.80
2018-06-04T04:47:17.078Z,17.80
2018-06-04T04:49:45.651Z,17.90
2018-06-04T04:52:14.159Z,17.90
2018-06-04T04:54:42.684Z,18.00
2018-06-04T04:57:11.212Z,17.90
2018-06-04T04:59:39.788Z,18.00
2018-06-04T05:02:08.328Z,18.10
2018-06-04T05:07:04.983Z,18.10
2018-06-04T05:09:33.572Z,18.00
2018-06-04T05:12:02.046Z,18.00
2018-06-04T05:14:30.525Z,18.10
2018-06-04T05:16:59.069Z,18.00
2018-06-04T05:19:27.582Z,18.10
2018-06-04T05:21:56.099Z,18.00
2018-06-04T05:24:24.674Z,18.10
2018-06-04T05:29:21.351Z,18.10
2018-06-04T05:31:49.870Z,18.10
2018-06-04T05:34:18.405Z,18.10
2018-06-04T05:36:46.895Z,18.20
2018-06-04T05:39:15.491Z,18.30
2018-06-04T05:41:44.023Z,18.30
2018-06-04T05:44:12.597Z,18.30
2018-06-04T05:46:41.106Z,18.30
2018-06-04T05:49:09.617Z,18.30
2018-06-04T05:51:38.090Z,18.40
2018-06-04T05:56:34.825Z,18.50
2018-06-04T05:59:03.430Z,18.60
2018-06-04T06:01:31.918Z,18.60
2018-06-04T06:06:28.792Z,18.80
2018-06-04T06:08:57.349Z,18.90
2018-06-04T06:11:25.922Z,19.10
2018-06-04T06:13:54.550Z,19.00
2018-06-04T06:16:23.063Z,18.90
2018-06-04T06:18:51.706Z,18.90
2018-06-04T06:21:20.230Z,18.90
2018-06-04T06:23:49.490Z,18.80
2018-06-04T06:28:46.212Z,19.00
2018-06-04T06:31:14.873Z,19.10
2018-06-04T06:33:43.496Z,19.20
2018-06-04T06:36:11.982Z,19.40
2018-06-04T06:38:40.503Z,19.70
2018-06-04T06:41:09.069Z,19.80
2018-06-04T06:46:05.815Z,20.20
2018-06-04T06:48:34.340Z,20.70
2018-06-04T06:51:02.871Z,20.90
2018-06-04T06:53:31.420Z,20.90
2018-06-04T06:55:59.925Z,20.90
2018-06-04T06:58:28.435Z,20.80
2018-06-04T07:00:57.086Z,20.60
2018-06-04T07:03:25.703Z,20.50
2018-06-04T07:05:54.190Z,20.60
2018-06-04T07:08:22.786Z,21.10
2018-06-04T07:13:19.550Z,21.00
2018-06-04T07:18:16.218Z,20.90
2018-06-04T07:20:44.897Z,20.90
2018-06-04T07:23:13.378Z,21.40
2018-06-04T07:28:10.099Z,21.50
2018-06-04T07:30:38.626Z,21.60
2018-06-04T07:33:07.770Z,21.80
2018-06-04T07:35:36.324Z,21.90
2018-06-04T07:38:05.469Z,22.20
2018-06-04T07:40:33.997Z,22.70
2018-06-04T07:43:02.636Z,22.90
2018-06-04T07:45:31.136Z,22.70
2018-06-04T07:47:59.668Z,22.70
2018-06-04T07:50:28.201Z,23.00
2018-06-04T07:52:56.703Z,23.10
2018-06-04T07:57:53.423Z,23.20
2018-06-04T08:00:21.946Z,23.30
2018-06-04T08:02:50.437Z,23.20
2018-06-04T08:05:19.006Z,23.10
2018-06-04T08:07:47.538Z,23.50
2018-06-04T08:10:16.126Z,23.90
2018-06-04T08:12:44.626Z,24.10
2018-06-04T08:15:13.133Z,24.50
2018-06-04T08:17:41.666Z,24.60
2018-06-04T08:20:10.198Z,24.50
2018-06-04T08:22:38.707Z,24.80
2018-06-04T08:25:07.274Z,24.70
2018-06-04T08:27:35.806Z,25.00
2018-06-04T08:30:04.400Z,25.40
2018-06-04T08:32:32.922Z,25.50
2018-06-04T08:35:01.463Z,25.60
2018-06-04T08:37:30.179Z,25.80
2018-06-04T08:39:58.693Z,25.70
2018-06-04T08:44:55.437Z,25.90
2018-06-04T08:47:24.895Z,26.10
2018-06-04T08:49:53.410Z,26.00
2018-06-04T08:52:21.909Z,25.60
2018-06-04T08:54:50.478Z,26.00
2018-06-04T08:57:19.697Z,26.40
2018-06-04T08:59:48.190Z,26.40
2018-06-04T09:02:16.803Z,26.70
2018-06-04T09:04:45.342Z,26.70
2018-06-04T09:07:13.837Z,26.70
2018-06-04T09:09:42.709Z,27.00
2018-06-04T09:12:11.225Z,27.10
2018-06-04T09:14:39.743Z,27.20
2018-06-04T09:17:08.335Z,27.10
2018-06-04T09:19:36.833Z,27.30
2018-06-04T09:22:05.416Z,27.60
2018-06-04T09:24:34.003Z,27.70
2018-06-04T09:27:02.503Z,27.60
2018-06-04T09:29:31.101Z,26.90
2018-06-04T09:31:59.710Z,27.10
2018-06-04T09:34:28.258Z,27.60
2018-06-04T09:36:56.766Z,27.80
2018-06-04T09:39:25.822Z,27.90
2018-06-04T09:41:54.349Z,27.40
2018-06-04T09:46:51.090Z,27.90
2018-06-04T09:49:19.667Z,27.90
2018-06-04T09:51:48.174Z,28.00
2018-06-04T09:56:44.859Z,28.60
2018-06-04T09:59:13.336Z,29.00
2018-06-04T10:01:41.878Z,29.00
2018-06-04T10:04:10.364Z,29.00
2018-06-04T10:06:38.966Z,29.10
2018-06-04T10:09:08.605Z,28.80
2018-06-04T10:11:37.200Z,29.10
2018-06-04T10:14:05.856Z,29.20
2018-06-04T10:16:34.365Z,29.60
2018-06-04T10:19:02.889Z,29.70
2018-06-04T10:21:31.907Z,29.60
2018-06-04T10:24:00.397Z,29.00
2018-06-04T10:26:29.109Z,28.80
2018-06-04T10:28:57.613Z,28.90
2018-06-04T10:31:26.111Z,28.20
2018-06-04T10:33:54.672Z,28.60
2018-06-04T10:36:23.219Z,28.80
2018-06-04T10:38:52.302Z,29.00
2018-06-04T10:41:20.822Z,28.90
2018-06-04T10:43:49.321Z,29.30
2018-06-04T10:48:47.310Z,29.50
2018-06-04T10:51:15.829Z,29.80
2018-06-04T10:53:44.363Z,30.40
2018-06-04T10:56:12.846Z,29.50
2018-06-04T10:58:41.356Z,28.40
2018-06-04T11:01:09.866Z,28.30
2018-06-04T11:03:38.374Z,28.20
2018-06-04T11:06:06.877Z,28.00
2018-06-04T11:08:35.397Z,28.30
2018-06-04T11:11:03.942Z,29.00
2018-06-04T11:13:32.498Z,29.00
2018-06-04T11:16:01.046Z,29.60
2018-06-04T11:18:30.146Z,29.60
2018-06-04T11:20:58.639Z,28.90
2018-06-04T11:23:27.170Z,28.50
2018-06-04T11:28:23.917Z,29.70
2018-06-04T11:33:20.725Z,30.50
2018-06-04T11:35:49.358Z,30.40
2018-06-04T11:38:17.869Z,30.60
2018-06-04T11:40:46.406Z,30.00
2018-06-04T11:43:14.982Z,29.70
2018-06-04T11:45:44.701Z,29.60
2018-06-04T11:48:13.213Z,29.20
2018-06-04T11:50:41.697Z,29.40
2018-06-04T11:53:10.264Z,28.90
2018-06-04T11:55:38.754Z,28.70
2018-06-04T11:58:07.245Z,28.90
2018-06-04T12:03:04.006Z,28.90
2018-06-04T12:08:00.813Z,28.90
2018-06-04T12:10:29.364Z,29.40
2018-06-04T12:12:57.914Z,29.00
2018-06-04T12:15:26.422Z,28.70
2018-06-04T12:17:54.932Z,28.30
2018-06-04T12:20:23.463Z,28.00
2018-06-04T12:22:52.000Z,27.80
2018-06-04T12:25:20.491Z,27.80
2018-06-04T12:27:49.040Z,27.70
2018-06-04T12:32:45.865Z,28.80
2018-06-04T12:35:14.381Z,28.90
2018-06-04T12:37:42.940Z,28.50
2018-06-04T12:40:11.501Z,27.90
2018-06-04T12:42:40.180Z,27.40
2018-06-04T12:45:08.707Z,27.20
2018-06-04T12:47:37.267Z,27.40
2018-06-04T12:50:05.845Z,28.20
2018-06-04T12:52:34.408Z,28.80
2018-06-04T12:55:02.964Z,29.30
2018-06-04T12:57:31.485Z,29.40
2018-06-04T13:00:00.064Z,29.20
2018-06-04T13:02:28.578Z,29.30
2018-06-04T13:04:57.177Z,29.30
2018-06-04T13:07:25.766Z,29.30
2018-06-04T13:09:54.297Z,29.40
2018-06-04T13:12:22.926Z,29.50
2018-06-04T13:14:51.469Z,29.00
2018-06-04T13:17:20.017Z,29.20
2018-06-04T13:22:16.710Z,29.00
2018-06-04T13:24:45.239Z,29.30
2018-06-04T13:27:13.826Z,29.00
2018-06-04T13:29:42.402Z,29.00
2018-06-04T13:32:10.934Z,29.00
2018-06-04T13:34:39.435Z,28.50
2018-06-04T13:37:07.970Z,28.30
2018-06-04T13:39:36.563Z,28.50
2018-06-04T13:42:11.798Z,28.60
2018-06-04T13:44:40.341Z,29.00
2018-06-04T13:47:08.845Z,29.30
2018-06-04T13:49:38.020Z,29.30
2018-06-04T13:52:06.637Z,29.10
2018-06-04T13:54:35.935Z,29.30
2018-06-04T13:57:04.438Z,28.50
2018-06-04T13:59:33.074Z,28.50
2018-06-04T14:02:01.657Z,28.40
2018-06-04T14:04:30.182Z,28.30
2018-06-04T14:06:58.700Z,28.70
2018-06-04T14:11:55.381Z,29.30
2018-06-04T14:14:23.886Z,29.10
2018-06-04T14:16:52.398Z,29.00
2018-06-04T14:19:20.889Z,28.60
2018-06-04T14:24:17.657Z,28.70
2018-06-04T14:29:14.380Z,28.70
2018-06-04T14:31:42.873Z,28.80
2018-06-04T14:34:11.432Z,28.80
2018-06-04T14:36:40.007Z,28.90
2018-06-04T14:39:09.503Z,28.70
2018-06-04T14:44:06.310Z,28.10
2018-06-04T14:46:34.822Z,28.00
2018-06-04T14:49:03.374Z,28.10
2018-06-04T14:51:31.857Z,28.10
2018-06-04T14:54:00.353Z,28.20
2018-06-04T14:56:28.906Z,28.20
2018-06-04T14:58:57.446Z,28.30
2018-06-04T15:01:26.029Z,28.40
2018-06-04T15:03:54.596Z,28.00
2018-06-04T15:06:23.166Z,28.10
2018-06-04T15:08:51.740Z,28.00
2018-06-04T15:11:20.369Z,28.10
2018-06-04T15:13:48.912Z,27.90
2018-06-04T15:16:17.469Z,27.90
2018-06-04T15:18:46.130Z,28.00
2018-06-04T15:21:14.649Z,27.90
2018-06-04T15:23:43.170Z,27.90
2018-06-04T15:26:12.482Z,27.80
2018-06-04T15:28:40.978Z,27.60
2018-06-04T15:31:09.526Z,27.70
2018-06-04T15:33:38.029Z,27.60
2018-06-04T15:36:06.618Z,27.80
2018-06-04T15:38:35.165Z,27.60
2018-06-04T15:41:03.669Z,27.70
2018-06-04T15:43:32.193Z,27.50
2018-06-04T15:46:00.705Z,27.50
2018-06-04T15:48:29.230Z,27.50
2018-06-04T15:50:57.801Z,27.50
2018-06-04T15:53:26.358Z,27.40
2018-06-04T15:55:54.858Z,27.00
2018-06-04T15:58:24.133Z,27.10
2018-06-04T16:00:52.684Z,27.00
2018-06-04T16:03:21.218Z,27.00
2018-06-04T16:05:49.758Z,27.10
2018-06-04T16:08:18.251Z,27.20
2018-06-04T16:13:15.009Z,26.90
2018-06-04T16:15:43.553Z,26.90
2018-06-04T16:18:12.192Z,26.70
2018-06-04T16:20:40.714Z,26.60
2018-06-04T16:23:09.262Z,26.70
2018-06-04T16:25:37.873Z,26.60
2018-06-04T16:28:06.381Z,26.60
2018-06-04T16:30:34.915Z,26.70
2018-06-04T16:33:03.480Z,26.60
2018-06-04T16:35:31.994Z,26.40
2018-06-04T16:38:00.593Z,26.40
2018-06-04T16:40:29.122Z,26.40
2018-06-04T16:42:57.637Z,26.30
2018-06-04T16:45:26.161Z,26.30
2018-06-04T16:47:54.727Z,26.30
2018-06-04T16:50:23.350Z,26.20
2018-06-04T16:52:51.853Z,26.00
2018-06-04T16:55:20.406Z,26.00
2018-06-04T16:57:48.876Z,25.90
2018-06-04T17:00:17.578Z,25.90
2018-06-04T17:02:46.130Z,25.90
2018-06-04T17:05:14.634Z,25.90
2018-06-04T17:07:43.190Z,25.80
2018-06-04T17:10:11.814Z,25.80
2018-06-04T17:12:40.397Z,25.70
2018-06-04T17:15:10.092Z,25.70
2018-06-04T17:17:39.238Z,25.50
2018-06-04T17:20:08.367Z,25.60
2018-06-04T17:25:07.222Z,25.60
2018-06-04T17:27:36.212Z,25.60
2018-06-04T17:30:04.745Z,25.50
2018-06-04T17:32:33.269Z,25.40
2018-06-04T17:35:01.801Z,25.40
2018-06-04T17:37:30.342Z,25.50
2018-06-04T17:39:58.864Z,25.20
2018-06-04T17:42:27.448Z,25.20
2018-06-04T17:44:55.954Z,25.20
2018-06-04T17:47:24.531Z,25.20
2018-06-04T17:49:53.005Z,25.20
2018-06-04T17:52:21.715Z,25.20
2018-06-04T17:54:50.261Z,25.20
2018-06-04T17:59:46.962Z,25.20
2018-06-04T18:02:15.473Z,25.10
2018-06-04T18:04:43.997Z,25.00
2018-06-04T18:07:12.545Z,25.00
2018-06-04T18:09:41.213Z,24.90
2018-06-04T18:12:09.781Z,24.90
2018-06-04T18:14:38.296Z,24.80
2018-06-04T18:17:06.817Z,24.80
2018-06-04T18:19:35.361Z,24.70
2018-06-04T18:22:03.937Z,24.70
2018-06-04T18:24:32.541Z,24.50
2018-06-04T18:27:01.142Z,24.60
2018-06-04T18:29:29.669Z,24.60
2018-06-04T18:31:58.158Z,24.50
2018-06-04T18:34:26.706Z,24.40
2018-06-04T18:36:55.270Z,24.40
2018-06-04T18:39:23.857Z,24.20
2018-06-04T18:41:53.171Z,24.20
2018-06-04T18:46:50.053Z,24.10
2018-06-04T18:49:18.573Z,24.00
2018-06-04T18:51:47.169Z,23.90
2018-06-04T18:54:15.745Z,23.80
2018-06-04T18:56:44.271Z,23.80
2018-06-04T18:59:12.770Z,23.90
2018-06-04T19:01:41.278Z,23.90
2018-06-04T19:04:09.757Z,23.80
2018-06-04T19:06:38.258Z,23.80
2018-06-04T19:09:09.093Z,23.70
2018-06-04T19:11:37.945Z,23.60
2018-06-04T19:14:06.549Z,23.50
2018-06-04T19:16:35.109Z,23.30
2018-06-04T19:21:31.794Z,23.40
2018-06-04T19:24:00.325Z,23.20
2018-06-04T19:26:28.825Z,23.00
2018-06-04T19:28:57.368Z,22.90
2018-06-04T19:31:25.941Z,22.90
2018-06-04T19:33:54.488Z,22.80
2018-06-04T19:36:23.044Z,22.60
2018-06-04T19:38:52.341Z,22.60
2018-06-04T19:41:20.880Z,22.50
2018-06-04T19:43:50.049Z,22.40
2018-06-04T19:48:47.674Z,22.30
2018-06-04T19:51:16.229Z,22.20
2018-06-04T19:53:44.774Z,22.00
2018-06-04T19:56:13.324Z,22.00
2018-06-04T19:58:42.554Z,21.90
2018-06-04T20:01:11.068Z,21.90
2018-06-04T20:03:39.614Z,21.90
2018-06-04T20:06:08.233Z,21.80
2018-06-04T20:11:05.182Z,21.70
2018-06-04T20:13:33.731Z,21.60
2018-06-04T20:16:02.311Z,21.50
2018-06-04T20:18:30.808Z,21.50
2018-06-04T20:21:01.148Z,21.40
2018-06-04T20:23:29.677Z,21.30
2018-06-04T20:28:26.756Z,21.20
2018-06-04T20:30:55.367Z,21.10
2018-06-04T20:33:23.877Z,21.10
2018-06-04T20:35:52.452Z,21.00
2018-06-04T20:38:20.936Z,20.90
2018-06-04T20:40:49.640Z,20.90
2018-06-04T20:43:18.206Z,20.90
2018-06-04T20:45:46.693Z,20.70
2018-06-04T20:48:15.245Z,20.80
2018-06-04T20:50:43.873Z,20.70
2018-06-04T20:53:12.452Z,20.60
2018-06-04T20:55:41.044Z,20.60
2018-06-04T20:58:10.262Z,20.50
2018-06-04T21:00:38.849Z,20.60
2018-06-04T21:03:07.417Z,20.60
2018-06-04T21:05:36.624Z,20.50
2018-06-04T21:08:05.174Z,20.50
2018-06-04T21:10:33.789Z,20.40
2018-06-04T21:13:02.371Z,20.30
2018-06-04T21:15:30.932Z,20.40
2018-06-04T21:17:59.507Z,20.30
2018-06-04T21:20:28.037Z,20.10
2018-06-04T21:22:56.522Z,20.10
2018-06-04T21:25:25.025Z,20.10
2018-06-04T21:30:21.783Z,20.00
2018-06-04T21:32:50.354Z,20.00
2018-06-04T21:35:18.871Z,19.90
2018-06-04T21:37:47.445Z,19.90
2018-06-04T21:40:15.949Z,19.90
2018-06-04T21:42:44.457Z,19.90
2018-06-04T21:45:13.118Z,19.80
2018-06-04T21:47:41.704Z,19.80
2018-06-04T21:50:10.257Z,19.70
2018-06-04T21:52:38.830Z,19.60
2018-06-04T21:55:07.353Z,19.60
2018-06-04T21:57:35.843Z,19.60
2018-06-04T22:00:06.349Z,19.50
2018-06-04T22:02:34.935Z,19.50
2018-06-04T22:05:03.449Z,19.50
2018-06-04T22:07:32.116Z,19.40
2018-06-04T22:12:29.757Z,19.30
2018-06-04T22:17:26.519Z,19.30
2018-06-04T22:22:23.686Z,19.30
2018-06-04T22:24:52.248Z,19.20
2018-06-04T22:27:20.765Z,19.20
2018-06-04T22:29:49.362Z,19.20
2018-06-04T22:32:17.946Z,19.20
2018-06-04T22:34:46.477Z,19.10
2018-06-04T22:37:15.056Z,19.10
2018-06-04T22:39:43.546Z,19.10
2018-06-04T22:42:12.027Z,19.10
2018-06-04T22:44:41.817Z,19.00
2018-06-04T22:47:10.758Z,19.00
2018-06-04T22:49:39.357Z,19.00
2018-06-04T22:52:07.885Z,18.90
2018-06-04T22:54:36.381Z,18.80
2018-06-04T22:57:04.918Z,18.80
2018-06-04T22:59:33.478Z,18.80
2018-06-04T23:02:01.962Z,18.70
2018-06-04T23:04:30.539Z,18.70
2018-06-04T23:06:59.076Z,18.70
2018-06-04T23:09:27.625Z,18.60
2018-06-04T23:11:56.138Z,18.60
2018-06-04T23:14:24.650Z,18.50
2018-06-04T23:16:53.126Z,18.60
2018-06-04T23:19:21.811Z,18.50
2018-06-04T23:21:50.389Z,18.40
2018-06-04T23:24:19.279Z,18.40
2018-06-04T23:26:47.828Z,18.50
2018-06-04T23:29:16.450Z,18.40
2018-06-04T23:31:45.161Z,18.40
2018-06-04T23:34:13.669Z,18.40
2018-06-04T23:36:42.169Z,18.40
2018-06-04T23:39:10.698Z,18.40
2018-06-04T23:41:39.426Z,18.40
2018-06-04T23:44:08.015Z,18.40
2018-06-04T23:46:36.706Z,18.30
2018-06-04T23:49:05.223Z,18.30
2018-06-04T23:51:33.801Z,18.30
2018-06-04T23:54:02.383Z,18.20
2018-06-04T23:56:31.405Z,18.20
2018-06-04T23:58:59.992Z,18.10
